Time;durP1;ratioP1;P1;durP2;ratioP2;P2;SDS_P1;SDS_P2;PMS_P1;PMS_P2;Temp;Humidity;BMP_temperature;BMP_pressure;BME280_temperature;BME280_humidity;BME280_pressure;Samples;Min_cycle;Max_cycle;Signal;HPM_P1;HPM_P2
2022/12/22 03:25:55;;;;;;;5.10;4.60;;;6.10;99.90;;;;;;5033000;28;20615;-49
2022/12/22 03:28:23;;;;;;;4.33;3.87;;;6.10;99.90;;;;;;5031625;28;20210;-49
2022/12/22 03:30:54;;;;;;;5.90;4.73;;;6.20;99.90;;;;;;5032580;28;20670;-49
2022/12/22 03:33:23;;;;;;;4.03;3.80;;;6.10;99.90;;;;;;5032661;28;20627;-49
2022/12/22 03:35:50;;;;;;;4.50;4.00;;;6.10;99.90;;;;;;5023339;28;20239;-52
2022/12/22 03:38:17;;;;;;;4.63;4.23;;;6.10;99.90;;;;;;5024564;28;20535;-50
2022/12/22 03:40:44;;;;;;;3.77;3.47;;;6.10;99.90;;;;;;5031005;28;20204;-49
2022/12/22 03:51:32;;;;;;;3.25;2.90;;;5.90;99.90;;;;;;5054578;22;20207;-53
2022/12/22 03:53:59;;;;;;;3.17;2.43;;;6.00;99.90;;;;;;5069868;28;20319;-52
2022/12/22 03:56:27;;;;;;;3.37;3.07;;;6.10;99.90;;;;;;5073089;28;20279;-52
2022/12/22 03:58:54;;;;;;;2.73;2.53;;;6.10;99.90;;;;;;5072313;28;20198;-52
2022/12/22 04:01:21;;;;;;;3.17;2.17;;;6.30;99.90;;;;;;5072843;28;20331;-52
2022/12/22 04:03:49;;;;;;;2.13;1.87;;;6.40;99.90;;;;;;5066574;28;20222;-52
2022/12/22 04:06:18;;;;;;;3.40;2.93;;;6.40;99.90;;;;;;5069384;28;20203;-52
2022/12/22 04:08:45;;;;;;;4.00;3.63;;;6.40;99.90;;;;;;5072659;28;20567;-52
2022/12/22 04:13:58;;;;;;;3.87;3.57;;;6.20;99.90;;;;;;5064431;28;20230;-52
2022/12/22 04:16:26;;;;;;;5.13;3.50;;;6.20;99.90;;;;;;5072632;28;20290;-52
2022/12/22 04:18:53;;;;;;;4.10;3.70;;;6.10;99.90;;;;;;5062751;28;20210;-52
2022/12/22 04:21:21;;;;;;;3.03;2.50;;;6.10;99.90;;;;;;5072674;28;20194;-52
2022/12/22 04:23:50;;;;;;;2.53;2.43;;;6.10;99.90;;;;;;5072092;28;20716;-50
2022/12/22 04:26:17;;;;;;;2.70;1.80;;;6.30;99.90;;;;;;5070562;28;20199;-50
2022/12/22 04:28:44;;;;;;;2.90;2.73;;;6.50;99.90;;;;;;5070640;28;20620;-50
2022/12/22 04:31:11;;;;;;;2.93;2.60;;;6.60;99.90;;;;;;5070392;28;20264;-50
2022/12/22 04:33:38;;;;;;;2.93;2.73;;;6.50;99.90;;;;;;5070976;28;20767;-50
2022/12/22 04:36:06;;;;;;;2.37;2.17;;;6.40;99.90;;;;;;5072179;28;20218;-51
2022/12/22 04:38:34;;;;;;;2.03;1.93;;;6.40;99.90;;;;;;5072307;28;20663;-50
2022/12/22 04:41:01;;;;;;;3.17;2.97;;;6.40;99.90;;;;;;5070812;28;20700;-50
2022/12/22 04:43:28;;;;;;;2.17;2.07;;;6.40;99.90;;;;;;5070319;28;20248;-50
2022/12/22 04:45:56;;;;;;;2.53;2.27;;;6.30;99.90;;;;;;5071821;28;20648;-50
2022/12/22 04:48:24;;;;;;;2.73;2.17;;;6.30;99.90;;;;;;5072386;28;20199;-49
2022/12/22 04:50:52;;;;;;;1.77;1.67;;;6.20;99.90;;;;;;5071357;28;21561;-49
2022/12/22 04:53:19;;;;;;;2.17;1.93;;;6.10;99.90;;;;;;5069609;28;20235;-50
2022/12/22 04:55:49;;;;;;;2.13;2.03;;;6.10;99.90;;;;;;5070674;28;20216;-50
2022/12/22 04:58:16;;;;;;;3.00;2.07;;;6.00;99.90;;;;;;5066234;28;20259;-50
2022/12/22 05:00:43;;;;;;;2.67;2.47;;;6.10;99.90;;;;;;5071947;28;20739;-50
2022/12/22 05:03:10;;;;;;;2.10;2.00;;;6.10;99.90;;;;;;5071860;28;20280;-49
2022/12/22 05:05:37;;;;;;;2.77;2.43;;;6.00;99.90;;;;;;5072002;28;20202;-50
2022/12/22 05:08:05;;;;;;;2.13;2.03;;;5.90;99.90;;;;;;5060796;28;20252;-50
2022/12/22 05:10:32;;;;;;;2.97;2.77;;;5.90;99.90;;;;;;5069287;28;20207;-50
2022/12/22 05:13:01;;;;;;;2.67;2.47;;;5.90;99.90;;;;;;5071258;28;20644;-50
2022/12/22 05:15:30;;;;;;;3.10;2.80;;;5.90;99.90;;;;;;5071215;28;20245;-50
2022/12/22 05:17:59;;;;;;;3.07;2.57;;;5.90;99.90;;;;;;5070568;28;20744;-49
2022/12/22 05:20:26;;;;;;;2.53;2.43;;;5.90;99.90;;;;;;5065881;28;20203;-50
2022/12/22 05:22:54;;;;;;;2.83;2.63;;;5.90;99.90;;;;;;5069238;28;20224;-50
2022/12/22 05:25:21;;;;;;;3.10;2.90;;;5.90;99.90;;;;;;5070772;28;20195;-50
2022/12/22 05:27:50;;;;;;;3.23;3.03;;;6.00;99.90;;;;;;5071674;28;20288;-50
2022/12/22 05:30:19;;;;;;;3.80;3.50;;;6.00;99.90;;;;;;5071570;28;20198;-50
2022/12/22 05:32:47;;;;;;;4.77;2.57;;;5.90;99.90;;;;;;5071721;28;20227;-51
2022/12/22 05:35:14;;;;;;;8.57;3.40;;;5.90;99.90;;;;;;5066380;28;20218;-49
2022/12/22 05:37:41;;;;;;;1.77;1.60;;;6.00;99.90;;;;;;5065165;28;20280;-51
2022/12/22 05:40:10;;;;;;;2.60;1.50;;;6.10;99.90;;;;;;5056943;28;20208;-51
2022/12/22 05:42:38;;;;;;;2.00;1.60;;;6.10;99.90;;;;;;5069598;28;20230;-50
2022/12/22 05:45:07;;;;;;;2.20;2.00;;;6.10;99.90;;;;;;5071408;28;20656;-50
2022/12/22 05:47:36;;;;;;;1.27;1.17;;;6.10;99.90;;;;;;5070664;28;20207;-50
2022/12/22 05:50:03;;;;;;;1.60;1.00;;;6.10;99.90;;;;;;5071586;28;20249;-50
2022/12/22 05:52:30;;;;;;;3.10;2.10;;;6.10;99.90;;;;;;5068764;28;20289;-49
2022/12/22 05:54:57;;;;;;;1.33;1.23;;;6.30;99.90;;;;;;5062550;28;20279;-50
2022/12/22 05:57:24;;;;;;;1.87;1.53;;;6.30;99.90;;;;;;5064863;28;20198;-49
2022/12/22 05:59:51;;;;;;;1.47;1.37;;;6.30;99.90;;;;;;5071460;28;20682;-50
2022/12/22 06:02:18;;;;;;;1.60;1.50;;;6.40;99.90;;;;;;5071561;28;20295;-50
2022/12/22 06:04:47;;;;;;;1.07;1.07;;;6.40;99.90;;;;;;5070860;28;20198;-50
2022/12/22 06:07:14;;;;;;;3.90;1.43;;;6.40;99.90;;;;;;5071361;28;20206;-49
2022/12/22 06:09:41;;;;;;;1.97;1.27;;;6.50;99.90;;;;;;5071443;28;20248;-49
2022/12/22 06:12:08;;;;;;;1.50;1.20;;;6.50;99.90;;;;;;5060883;28;20273;-50
2022/12/22 06:14:35;;;;;;;2.03;1.90;;;6.40;99.90;;;;;;5060666;28;20710;-50
2022/12/22 06:17:02;;;;;;;3.73;1.60;;;6.40;99.90;;;;;;5071114;28;20256;-50
2022/12/22 06:19:29;;;;;;;3.00;2.77;;;6.30;99.90;;;;;;5070888;28;20208;-50
2022/12/22 06:21:58;;;;;;;2.33;2.03;;;6.10;99.90;;;;;;5071059;28;20231;-50
2022/12/22 06:24:25;;;;;;;2.50;1.90;;;6.10;99.90;;;;;;5070929;28;20740;-51
2022/12/22 06:26:56;;;;;;;4.77;1.77;;;6.10;99.90;;;;;;5074410;28;20677;-50
2022/12/22 06:29:23;;;;;;;3.07;1.50;;;6.10;99.90;;;;;;5063070;28;20208;-49
2022/12/22 06:31:53;;;;;;;3.50;2.13;;;6.00;99.90;;;;;;5074242;28;20223;-50
2022/12/22 06:34:20;;;;;;;4.23;2.30;;;6.00;99.90;;;;;;5074437;28;20211;-51
2022/12/22 06:36:48;;;;;;;2.80;2.20;;;6.00;99.90;;;;;;5074804;28;20202;-51
2022/12/22 06:39:17;;;;;;;3.93;2.50;;;6.00;99.90;;;;;;5074778;28;20758;-49
2022/12/22 06:44:29;;;;;;;2.63;2.43;;;6.00;99.90;;;;;;5070240;28;20580;-49
2022/12/22 06:46:57;;;;;;;2.77;2.07;;;6.10;99.90;;;;;;5070859;28;20204;-51
2022/12/22 06:49:24;;;;;;;2.30;2.10;;;6.10;99.90;;;;;;5076560;28;20197;-50
2022/12/22 06:51:52;;;;;;;1.40;1.30;;;6.10;99.90;;;;;;5094616;28;20234;-50
2022/12/22 06:54:20;;;;;;;1.47;1.47;;;6.10;99.90;;;;;;5094463;28;20287;-50
2022/12/22 06:56:47;;;;;;;3.67;2.50;;;6.10;99.90;;;;;;5094378;28;20644;-50
2022/12/22 06:59:14;;;;;;;1.60;1.50;;;6.10;99.90;;;;;;5094421;28;20206;-50
2022/12/22 07:01:42;;;;;;;1.50;1.40;;;6.10;99.90;;;;;;5082153;28;20258;-50
2022/12/22 07:04:09;;;;;;;2.37;2.20;;;6.10;99.90;;;;;;5070438;28;20215;-50
2022/12/22 07:06:36;;;;;;;2.53;1.77;;;6.20;99.90;;;;;;5065693;28;20196;-49
2022/12/22 07:09:04;;;;;;;4.40;1.97;;;6.20;99.90;;;;;;5071307;28;20256;-50
2022/12/22 07:11:32;;;;;;;1.33;1.23;;;6.20;99.90;;;;;;5070734;28;20202;-50
2022/12/22 07:13:59;;;;;;;1.53;1.43;;;6.20;99.90;;;;;;5063848;28;20206;-50
2022/12/22 07:16:26;;;;;;;2.30;1.50;;;6.20;99.90;;;;;;5060783;28;20271;-51
2022/12/22 07:18:53;;;;;;;1.93;1.47;;;6.20;99.90;;;;;;5064923;28;20251;-50
2022/12/22 07:21:20;;;;;;;0.90;0.90;;;6.10;99.90;;;;;;5067489;28;20202;-51
2022/12/22 07:23:47;;;;;;;3.03;2.33;;;6.10;99.90;;;;;;5071322;28;20588;-49
2022/12/22 07:26:14;;;;;;;1.40;1.33;;;6.10;99.90;;;;;;5067613;28;20280;-48
2022/12/22 07:28:43;;;;;;;1.10;1.10;;;6.10;99.90;;;;;;5070154;28;20281;-50
2022/12/22 07:31:12;;;;;;;3.27;1.93;;;6.20;99.90;;;;;;5068584;28;20204;-49
2022/12/22 07:33:39;;;;;;;3.13;1.50;;;6.40;99.90;;;;;;5067118;28;20222;-51
2022/12/22 07:36:08;;;;;;;1.70;1.30;;;6.40;99.90;;;;;;5071909;28;20225;-49
2022/12/22 07:38:37;;;;;;;2.17;0.93;;;6.50;99.90;;;;;;5052733;28;20256;-49
2022/12/22 07:42:43;;;;;;;2.90;1.43;;;6.60;99.90;;;;;;5053614;28;20199;-50
2022/12/22 07:43:55;;;;;;;2.40;1.37;;;6.70;99.90;;;;;;5052432;28;20209;-51
2022/12/22 07:46:23;;;;;;;0.70;0.70;;;6.80;99.90;;;;;;5065386;28;20197;-50
2022/12/22 07:51:35;;;;;;;1.00;0.80;;;6.90;99.90;;;;;;5073131;28;20690;-49
2022/12/22 07:54:05;;;;;;;3.90;0.90;;;6.90;99.90;;;;;;5065402;28;20294;-48
2022/12/22 07:56:32;;;;;;;1.10;0.87;;;6.90;99.90;;;;;;5065195;28;20275;-48
2022/12/22 07:59:01;;;;;;;1.30;1.30;;;7.00;99.90;;;;;;5073129;28;20197;-48
2022/12/22 08:01:28;;;;;;;1.20;0.90;;;7.00;99.90;;;;;;5073137;28;20202;-49
2022/12/22 08:03:57;;;;;;;1.30;1.20;;;7.00;99.90;;;;;;5069182;28;20506;-47
2022/12/22 08:06:24;;;;;;;2.50;1.10;;;7.00;99.90;;;;;;5071982;28;20195;-48
2022/12/22 08:08:52;;;;;;;1.60;1.50;;;7.00;99.90;;;;;;5072721;28;20207;-48
2022/12/22 08:11:19;;;;;;;2.17;2.07;;;7.00;99.90;;;;;;5069464;28;20198;-48
2022/12/22 08:13:48;;;;;;;2.00;1.47;;;6.90;99.90;;;;;;5092949;28;20254;-49
2022/12/22 08:16:19;;;;;;;1.87;1.57;;;6.90;99.90;;;;;;5092972;28;20605;-49
2022/12/22 08:18:46;;;;;;;1.13;1.13;;;6.90;99.90;;;;;;5076088;28;20282;-50
2022/12/22 08:21:14;;;;;;;2.60;1.33;;;7.00;99.90;;;;;;5078404;28;20205;-49
2022/12/22 08:23:41;;;;;;;1.90;1.20;;;7.10;99.90;;;;;;5072402;28;20220;-49
2022/12/22 08:26:17;;;;;;;1.60;1.50;;;7.20;99.90;;;;;;5072005;28;20204;-48
2022/12/22 08:28:49;;;;;;;2.53;0.97;;;7.40;99.90;;;;;;5070709;28;20202;-48
2022/12/22 08:31:17;;;;;;;1.27;0.97;;;7.40;99.90;;;;;;5070907;28;20723;-49
2022/12/22 08:33:45;;;;;;;1.00;0.73;;;7.40;99.90;;;;;;5072667;28;20697;-49
2022/12/22 08:36:12;;;;;;;2.60;1.40;;;7.40;99.90;;;;;;5072240;28;20232;-49
2022/12/22 08:38:41;;;;;;;1.17;1.17;;;7.40;99.90;;;;;;5072297;28;20597;-49
2022/12/22 08:41:09;;;;;;;3.13;1.57;;;7.30;99.90;;;;;;5072487;28;20305;-48
2022/12/22 08:43:36;;;;;;;1.80;1.30;;;7.30;99.90;;;;;;5071945;28;20219;-48
2022/12/22 08:46:03;;;;;;;1.77;1.67;;;7.30;99.90;;;;;;5061745;28;20218;-49
2022/12/22 08:48:32;;;;;;;1.20;1.07;;;7.30;99.90;;;;;;5072183;28;20199;-47
2022/12/22 08:50:59;;;;;;;1.40;1.30;;;7.30;99.90;;;;;;5072105;28;20206;-49
2022/12/22 08:53:26;;;;;;;1.40;1.13;;;7.40;99.90;;;;;;5071740;28;20230;-48
2022/12/22 08:55:54;;;;;;;2.83;1.30;;;7.50;99.90;;;;;;5071240;28;20223;-49
2022/12/22 08:58:22;;;;;;;3.77;1.70;;;7.40;99.90;;;;;;5070161;28;20260;-49
2022/12/22 09:00:49;;;;;;;1.90;0.80;;;7.40;99.90;;;;;;5071996;28;20205;-48
2022/12/22 09:03:16;;;;;;;2.00;1.00;;;7.40;99.90;;;;;;5071481;28;20720;-49
2022/12/22 09:05:44;;;;;;;1.37;1.27;;;7.40;99.90;;;;;;5071851;28;20194;-49
2022/12/22 09:08:11;;;;;;;0.90;0.90;;;7.50;99.90;;;;;;5071808;28;20215;-49
2022/12/22 09:10:42;;;;;;;1.30;1.07;;;7.70;99.90;;;;;;5070639;28;20620;-49
2022/12/22 09:13:09;;;;;;;2.80;1.00;;;7.90;99.90;;;;;;5064639;28;20284;-48
2022/12/22 09:15:37;;;;;;;0.77;0.77;;;8.30;99.90;;;;;;5071842;28;20219;-49
2022/12/22 09:18:04;;;;;;;0.70;0.70;;;8.70;99.90;;;;;;5071745;28;20199;-49
2022/12/22 09:20:31;;;;;;;1.03;0.93;;;8.90;99.90;;;;;;5071834;28;20206;-49
2022/12/22 09:23:01;;;;;;;3.43;0.97;;;9.00;99.90;;;;;;5070611;28;20230;-49
2022/12/22 09:25:28;;;;;;;0.93;0.93;;;8.90;99.90;;;;;;5069843;28;20282;-49
2022/12/22 09:27:55;;;;;;;1.20;0.60;;;8.90;99.90;;;;;;5071769;28;20669;-49
2022/12/22 09:30:22;;;;;;;0.73;0.73;;;8.90;99.90;;;;;;5071495;28;20225;-49
2022/12/22 09:32:49;;;;;;;0.70;0.70;;;8.80;99.90;;;;;;5071510;28;20222;-48
2022/12/22 09:35:16;;;;;;;0.97;0.73;;;8.70;99.90;;;;;;5071708;28;20728;-49
2022/12/22 09:37:43;;;;;;;0.70;0.70;;;8.70;99.90;;;;;;5071487;28;20210;-49
2022/12/22 09:40:12;;;;;;;1.10;1.00;;;8.80;99.90;;;;;;5069605;28;20207;-49
2022/12/22 09:42:39;;;;;;;3.83;2.10;;;8.80;99.90;;;;;;5070031;28;20225;-48
2022/12/22 09:45:18;;;;;;;2.33;1.63;;;8.80;99.90;;;;;;5070818;28;20552;-49
2022/12/22 09:47:52;;;;;;;4.50;1.40;;;8.90;99.90;;;;;;5068813;28;20206;-49
2022/12/22 09:50:22;;;;;;;3.93;2.77;;;8.90;99.90;;;;;;5074841;28;20202;-49
2022/12/22 09:52:52;;;;;;;1.80;1.70;;;8.90;99.90;;;;;;5071307;28;20238;-48
2022/12/22 09:55:37;;;;;;;4.27;1.83;;;8.90;99.90;;;;;;5076935;28;20198;-49
2022/12/22 09:58:13;;;;;;;1.70;1.60;;;8.90;99.90;;;;;;5069019;28;20286;-49
2022/12/22 10:00:41;;;;;;;7.07;3.80;;;8.80;99.90;;;;;;5072485;28;20215;-49
2022/12/22 10:03:21;;;;;;;5.27;3.43;;;8.80;99.90;;;;;;5091882;22;20261;-48
2022/12/22 10:05:55;;;;;;;3.23;2.87;;;8.80;99.90;;;;;;5051344;28;20849;-48
2022/12/22 10:08:29;;;;;;;3.60;2.53;;;8.80;99.90;;;;;;5051633;28;20549;-48
2022/12/22 10:10:58;;;;;;;6.10;2.70;;;8.80;99.90;;;;;;5035793;28;20261;-49
2022/12/22 10:13:25;;;;;;;2.67;2.47;;;8.80;99.90;;;;;;5043212;28;20224;-48
2022/12/22 10:15:52;;;;;;;2.37;2.17;;;8.80;99.90;;;;;;5033931;28;20229;-48
2022/12/22 10:18:21;;;;;;;2.53;2.10;;;8.80;99.90;;;;;;5035226;28;20206;-49
2022/12/22 10:21:08;;;;;;;3.43;2.07;;;8.80;99.90;;;;;;5035054;28;20670;-49
2022/12/22 10:23:37;;;;;;;0.83;0.83;;;8.90;99.90;;;;;;5033211;28;20220;-49
2022/12/22 10:26:10;;;;;;;3.40;0.80;;;9.00;99.90;;;;;;5040882;28;20198;-48
2022/12/22 10:28:39;;;;;;;2.77;1.10;;;9.20;99.90;;;;;;5034929;28;20631;-48
2022/12/22 10:31:13;;;;;;;0.73;0.50;;;9.50;99.90;;;;;;5034765;28;20668;-49
2022/12/22 10:33:41;;;;;;;1.13;0.80;;;9.80;99.90;;;;;;5033086;28;20219;-48
2022/12/22 10:36:09;;;;;;;1.03;0.70;;;10.00;99.90;;;;;;5033749;28;20228;-49
2022/12/22 10:38:38;;;;;;;1.27;1.13;;;10.20;99.90;;;;;;5034801;28;20299;-48
2022/12/22 10:41:15;;;;;;;1.73;1.23;;;10.20;99.90;;;;;;5034856;28;20264;-49
2022/12/22 10:43:48;;;;;;;3.53;0.70;;;10.30;99.90;;;;;;5033669;28;20292;-48
2022/12/22 10:46:15;;;;;;;3.43;0.60;;;10.40;99.90;;;;;;5033774;28;20733;-48
2022/12/22 10:48:43;;;;;;;4.63;0.70;;;10.60;99.90;;;;;;5033722;28;20282;-48
2022/12/22 10:51:13;;;;;;;5.27;0.60;;;10.80;99.90;;;;;;5034758;28;20201;-49
2022/12/22 10:53:44;;;;;;;2.53;0.50;;;10.90;99.90;;;;;;5033535;28;20641;-49
2022/12/22 10:56:22;;;;;;;1.23;0.50;;;11.10;99.90;;;;;;5034606;28;20303;-48
2022/12/22 10:58:51;;;;;;;4.67;0.83;;;11.20;99.90;;;;;;5034375;28;20593;-49
2022/12/22 11:01:27;;;;;;;3.13;0.60;;;11.40;99.90;;;;;;5034293;28;20203;-49
2022/12/22 11:03:54;;;;;;;3.80;1.13;;;11.70;99.90;;;;;;5035001;28;20233;-49
2022/12/22 11:06:22;;;;;;;1.30;0.67;;;11.80;99.90;;;;;;5034051;28;20668;-48
2022/12/22 11:08:49;;;;;;;4.10;0.30;;;11.90;99.90;;;;;;5034103;28;20236;-48
2022/12/22 11:11:32;;;;;;;1.47;0.50;;;12.00;99.90;;;;;;5033777;28;20204;-50
2022/12/22 11:14:12;;;;;;;1.90;0.90;;;12.00;99.90;;;;;;5032721;28;20267;-49
2022/12/22 11:16:46;;;;;;;2.20;0.43;;;11.90;99.90;;;;;;5033431;28;20263;-48
2022/12/22 11:19:39;;;;;;;2.60;0.67;;;11.80;99.90;;;;;;5034022;28;20213;-48
2022/12/22 11:22:16;;;;;;;2.27;0.60;;;11.80;99.90;;;;;;5032765;28;20205;-48
2022/12/22 11:24:54;;;;;;;2.47;0.50;;;11.90;99.90;;;;;;5030524;28;20291;-48
2022/12/22 11:27:33;;;;;;;1.80;0.40;;;12.00;99.90;;;;;;5033137;28;20204;-49
2022/12/22 11:30:05;;;;;;;8.80;2.60;;;12.20;99.90;;;;;;5025144;28;20256;-48
2022/12/22 11:32:49;;;;;;;1.97;0.50;;;12.30;99.90;;;;;;5033019;28;20201;-49
2022/12/22 11:35:27;;;;;;;3.03;0.40;;;12.50;99.90;;;;;;5032764;28;20204;-49
2022/12/22 11:38:01;;;;;;;6.20;1.07;;;12.60;99.90;;;;;;5033987;28;20697;-48
2022/12/22 11:40:32;;;;;;;4.23;0.40;;;12.60;99.90;;;;;;5032796;28;20798;-48
2022/12/22 11:43:17;;;;;;;3.67;0.40;;;12.70;99.90;;;;;;5033423;28;20200;-49
2022/12/22 11:45:57;;;;;;;3.17;0.50;;;12.80;99.90;;;;;;5033158;28;20209;-49
2022/12/22 11:49:02;;;;;;;3.87;0.90;;;12.90;99.90;;;;;;5031946;28;20406;-49
2022/12/22 11:51:45;;;;;;;1.17;0.33;;;13.00;99.90;;;;;;5031633;28;20637;-48
2022/12/22 11:54:33;;;;;;;1.70;0.30;;;13.00;99.90;;;;;;5026161;28;20226;-49
2022/12/22 11:57:09;;;;;;;1.40;0.30;;;13.10;99.90;;;;;;5027357;28;20224;-49
2022/12/22 11:59:47;;;;;;;4.43;0.30;;;13.10;99.90;;;;;;5032061;28;20200;-48
2022/12/22 12:02:38;;;;;;;3.00;0.40;;;13.20;99.90;;;;;;5032683;28;20254;-49
2022/12/22 12:05:24;;;;;;;1.63;0.30;;;13.30;99.90;;;;;;5027673;28;20211;-48
2022/12/22 12:07:54;;;;;;;2.53;0.37;;;13.60;99.90;;;;;;5033030;28;20756;-48
2022/12/22 12:10:26;;;;;;;4.17;0.40;;;13.80;99.90;;;;;;5032275;28;20751;-48
2022/12/22 12:13:01;;;;;;;4.20;0.33;;;13.90;99.90;;;;;;5032565;28;20244;-48
2022/12/22 12:15:32;;;;;;;1.17;0.60;;;14.00;99.90;;;;;;5031545;28;20204;-48
2022/12/22 12:18:30;;;;;;;1.70;0.20;;;13.90;99.90;;;;;;5025345;28;20228;-49
2022/12/22 12:21:07;;;;;;;3.97;0.90;;;13.80;99.90;;;;;;5030317;28;20465;-47
2022/12/22 12:23:52;;;;;;;5.13;0.30;;;13.50;99.90;;;;;;5030830;28;20233;-49
2022/12/22 12:26:24;;;;;;;2.53;0.93;;;13.40;99.90;;;;;;5025941;28;20210;-48
2022/12/22 12:29:03;;;;;;;1.37;0.20;;;13.30;99.90;;;;;;5031913;28;20209;-49
2022/12/22 12:31:36;;;;;;;1.43;0.30;;;13.20;99.90;;;;;;5032958;28;20201;-49
2022/12/22 12:34:04;;;;;;;2.43;0.30;;;13.10;99.90;;;;;;5028922;28;20218;-48
2022/12/22 12:36:40;;;;;;;2.40;0.40;;;13.10;99.90;;;;;;5031746;28;20198;-48
2022/12/22 12:39:16;;;;;;;2.63;0.40;;;13.10;99.90;;;;;;5026146;28;20313;-48
2022/12/22 12:41:52;;;;;;;1.37;0.40;;;13.10;99.90;;;;;;5032538;28;20236;-49
2022/12/22 12:44:23;;;;;;;2.93;0.47;;;13.20;99.90;;;;;;5026575;28;20225;-48
2022/12/22 12:47:07;;;;;;;1.57;0.40;;;13.10;99.90;;;;;;5028771;28;20387;-48
2022/12/22 12:49:58;;;;;;;2.43;0.27;;;13.10;99.90;;;;;;5038223;28;20203;-49
2022/12/22 12:53:14;;;;;;;1.00;0.30;;;13.10;99.90;;;;;;5026721;28;20213;-49
2022/12/22 12:56:02;;;;;;;1.47;0.40;;;13.00;99.90;;;;;;5029592;28;20288;-48
2022/12/22 12:58:49;;;;;;;2.93;0.30;;;13.00;99.90;;;;;;5027651;28;20621;-48
2022/12/22 13:01:55;;;;;;;1.60;0.20;;;13.00;99.90;;;;;;5029453;28;20205;-48
2022/12/22 13:05:12;;;;;;;1.57;0.30;;;13.00;99.90;;;;;;5035312;28;20708;-49
2022/12/22 13:08:07;;;;;;;2.37;0.30;;;13.00;99.90;;;;;;5038133;28;20703;-48
2022/12/22 13:10:35;;;;;;;1.37;0.37;;;13.00;99.90;;;;;;5032791;28;20642;-50
2022/12/22 13:13:03;;;;;;;1.90;0.30;;;13.20;99.90;;;;;;5032116;28;20597;-48
2022/12/22 13:15:31;;;;;;;2.77;0.30;;;13.20;99.90;;;;;;5031961;28;20256;-49
2022/12/22 13:17:59;;;;;;;1.23;0.20;;;13.30;99.90;;;;;;5031508;28;20217;-49
2022/12/22 13:20:29;;;;;;;0.73;0.20;;;13.40;99.90;;;;;;5031726;28;20202;-48
2022/12/22 13:22:59;;;;;;;1.67;0.57;;;13.40;99.90;;;;;;5031719;28;20205;-48
2022/12/22 13:25:41;;;;;;;0.60;0.10;;;13.70;99.90;;;;;;5029993;28;20206;-48
2022/12/22 13:28:15;;;;;;;0.97;0.40;;;13.80;99.90;;;;;;5029447;28;20295;-48
2022/12/22 13:30:47;;;;;;;1.47;0.20;;;13.80;99.90;;;;;;5043205;28;20284;-48
2022/12/22 13:33:17;;;;;;;6.30;1.10;;;13.70;99.90;;;;;;5051564;28;20271;-48
2022/12/22 13:35:46;;;;;;;0.87;0.20;;;13.60;99.90;;;;;;5033921;28;20276;-48
2022/12/22 13:38:28;;;;;;;2.33;0.30;;;13.60;99.90;;;;;;5031283;28;20697;-48
2022/12/22 13:40:57;;;;;;;0.60;0.37;;;13.60;99.90;;;;;;5031754;28;20190;-48
2022/12/22 13:43:26;;;;;;;0.83;0.33;;;13.60;99.90;;;;;;5038541;28;20647;-48
2022/12/22 13:45:55;;;;;;;1.03;0.30;;;13.60;99.90;;;;;;5034238;28;20662;-48
2022/12/22 13:48:25;;;;;;;4.03;0.60;;;13.60;99.90;;;;;;5029169;28;20758;-48
2022/12/22 13:50:55;;;;;;;3.60;1.17;;;13.60;99.90;;;;;;5039528;28;20278;-48
2022/12/22 13:53:37;;;;;;;1.30;0.40;;;13.70;99.90;;;;;;5031228;28;20222;-48
2022/12/22 13:56:08;;;;;;;3.53;0.30;;;13.70;99.90;;;;;;5030287;28;20198;-50
2022/12/22 13:58:39;;;;;;;0.57;0.40;;;13.80;99.90;;;;;;5040035;28;20275;-49
2022/12/22 14:01:16;;;;;;;0.67;0.13;;;13.90;99.90;;;;;;5042517;28;20264;-49
2022/12/22 14:03:49;;;;;;;0.97;0.30;;;14.10;99.90;;;;;;5033876;28;20324;-49
2022/12/22 14:06:27;;;;;;;2.77;0.50;;;14.00;99.90;;;;;;5028301;28;20317;-49
2022/12/22 14:08:54;;;;;;;0.63;0.20;;;13.90;99.90;;;;;;5029824;28;21071;-48
2022/12/22 14:11:23;;;;;;;1.17;0.37;;;14.00;99.90;;;;;;5030229;28;20203;-49
2022/12/22 14:13:50;;;;;;;1.33;0.50;;;13.70;99.90;;;;;;5029387;28;20308;-49
2022/12/22 14:16:17;;;;;;;0.80;0.40;;;13.60;99.90;;;;;;5031356;28;20252;-49
2022/12/22 14:18:45;;;;;;;5.60;0.70;;;13.70;99.90;;;;;;5031165;28;20276;-49
2022/12/22 14:21:12;;;;;;;1.90;0.70;;;13.60;99.90;;;;;;5028850;28;20229;-49
2022/12/22 14:23:42;;;;;;;2.63;0.40;;;13.50;99.90;;;;;;5029760;28;20647;-49
2022/12/22 14:26:17;;;;;;;2.10;0.30;;;13.50;99.90;;;;;;5031014;28;20202;-49
2022/12/22 14:28:52;;;;;;;2.53;0.20;;;13.30;99.90;;;;;;5031319;28;20204;-49
2022/12/22 14:31:19;;;;;;;2.63;0.50;;;13.20;99.90;;;;;;5029713;28;20202;-50
2022/12/22 14:33:53;;;;;;;1.63;0.30;;;13.20;99.90;;;;;;5030646;28;20218;-49
2022/12/22 14:36:22;;;;;;;1.50;0.70;;;13.10;99.90;;;;;;5031053;28;20207;-49
2022/12/22 14:38:51;;;;;;;4.03;0.50;;;12.90;99.90;;;;;;5030843;28;20236;-49
2022/12/22 14:44:14;;;;;;;3.00;0.40;;;12.60;99.90;;;;;;5028591;28;20300;-49
2022/12/22 14:46:41;;;;;;;0.40;0.30;;;12.50;99.90;;;;;;5032358;28;20208;-49
2022/12/22 14:49:17;;;;;;;1.17;0.40;;;12.40;99.90;;;;;;5034211;28;20251;-49
2022/12/22 14:51:56;;;;;;;1.53;0.50;;;12.30;99.90;;;;;;5033910;28;20206;-49
2022/12/22 14:54:27;;;;;;;1.13;0.53;;;12.30;99.90;;;;;;5034355;28;20807;-49
2022/12/22 14:57:02;;;;;;;2.33;1.57;;;12.30;99.90;;;;;;5034185;28;20205;-49
2022/12/22 14:59:31;;;;;;;3.57;1.60;;;12.30;99.90;;;;;;5034330;28;20209;-49
2022/12/22 15:02:02;;;;;;;3.33;1.00;;;12.20;99.90;;;;;;5033574;28;20284;-48
2022/12/22 15:04:29;;;;;;;1.77;1.27;;;12.10;99.90;;;;;;5040096;28;20226;-48
2022/12/22 15:07:16;;;;;;;2.07;0.57;;;12.00;99.90;;;;;;5041901;28;20202;-49
2022/12/22 15:09:43;;;;;;;1.10;0.83;;;12.00;99.90;;;;;;5052179;28;20289;-48
2022/12/22 15:12:13;;;;;;;1.13;0.40;;;11.80;99.90;;;;;;5047776;28;20232;-49
2022/12/22 15:14:41;;;;;;;2.30;0.47;;;11.80;99.90;;;;;;5046194;28;20597;-49
2022/12/22 15:17:20;;;;;;;2.07;0.20;;;11.60;99.90;;;;;;5043108;28;20619;-49
2022/12/22 15:19:47;;;;;;;0.37;0.37;;;11.50;99.90;;;;;;5044173;28;20619;-48
2022/12/22 15:22:14;;;;;;;0.97;0.70;;;11.40;99.90;;;;;;5048287;28;20209;-49
2022/12/22 15:24:41;;;;;;;4.27;0.53;;;11.30;99.90;;;;;;5045079;28;20225;-49
2022/12/22 15:27:08;;;;;;;0.50;0.20;;;11.20;99.90;;;;;;5053940;28;20262;-48
2022/12/22 15:29:35;;;;;;;2.50;0.30;;;11.10;99.90;;;;;;5050355;28;20263;-48
2022/12/22 15:32:03;;;;;;;2.40;0.53;;;11.00;99.90;;;;;;5038244;28;20257;-49
2022/12/22 15:34:32;;;;;;;1.30;0.40;;;11.10;99.90;;;;;;5041759;28;20227;-49
2022/12/22 15:36:59;;;;;;;1.17;0.30;;;11.20;99.90;;;;;;5033686;28;20202;-50
2022/12/22 15:39:26;;;;;;;0.40;0.30;;;11.10;99.90;;;;;;5033885;28;20225;-49
2022/12/22 15:41:56;;;;;;;2.60;0.63;;;11.00;99.90;;;;;;5033688;28;20208;-49
2022/12/22 15:44:23;;;;;;;2.20;0.50;;;10.90;99.90;;;;;;5027805;28;20221;-49
2022/12/22 15:46:57;;;;;;;0.70;0.60;;;10.90;99.90;;;;;;5042239;28;20253;-49
2022/12/22 15:49:27;;;;;;;4.20;1.30;;;10.80;99.90;;;;;;5013987;28;20198;-48
2022/12/22 15:51:59;;;;;;;0.90;0.37;;;10.80;99.90;;;;;;5023119;28;20204;-48
2022/12/22 15:54:27;;;;;;;2.23;0.70;;;10.70;99.90;;;;;;5043135;28;20224;-48
2022/12/22 15:56:55;;;;;;;5.43;1.77;;;10.60;99.90;;;;;;5041273;28;20255;-49
2022/12/22 15:59:24;;;;;;;2.07;1.10;;;10.50;99.90;;;;;;5032750;28;20263;-48
2022/12/22 16:01:53;;;;;;;0.80;0.70;;;10.40;99.90;;;;;;5035188;28;20204;-49
2022/12/22 16:04:22;;;;;;;5.63;1.70;;;10.30;99.90;;;;;;5080074;22;20855;-51
2022/12/22 16:06:53;;;;;;;3.40;3.10;;;10.30;99.90;;;;;;5073281;28;20268;-50
2022/12/22 16:09:24;;;;;;;13.97;7.57;;;10.20;99.90;;;;;;5071474;28;20197;-50
2022/12/22 16:11:51;;;;;;;7.90;4.97;;;10.20;99.90;;;;;;5071845;28;20255;-50
2022/12/22 16:14:21;;;;;;;9.67;3.50;;;10.10;99.90;;;;;;5072501;28;20216;-50
2022/12/22 16:16:48;;;;;;;9.90;6.97;;;10.20;99.90;;;;;;5072805;28;20255;-50
2022/12/22 16:19:16;;;;;;;25.73;16.80;;;10.20;99.90;;;;;;5073028;28;20228;-49
2022/12/22 16:21:44;;;;;;;34.23;22.30;;;10.20;99.90;;;;;;5070854;28;20207;-50
2022/12/22 16:24:24;;;;;;;31.83;19.97;;;10.30;99.90;;;;;;5072366;28;20224;-50
2022/12/22 16:26:51;;;;;;;28.47;19.47;;;10.30;99.90;;;;;;5072773;28;20202;-51
2022/12/22 16:29:18;;;;;;;26.47;17.83;;;10.30;99.90;;;;;;5072945;28;20202;-50
2022/12/22 16:31:45;;;;;;;26.27;18.63;;;10.20;99.90;;;;;;5071409;28;20249;-50
2022/12/22 16:34:12;;;;;;;35.60;23.40;;;10.10;99.90;;;;;;5069218;28;20300;-50
2022/12/22 16:36:39;;;;;;;25.30;16.53;;;10.00;99.90;;;;;;5072659;28;20254;-50
2022/12/22 16:39:05;;;;;;;23.33;16.80;;;9.90;99.90;;;;;;5072504;28;20637;-50
2022/12/22 16:41:34;;;;;;;20.93;14.77;;;9.80;99.90;;;;;;5070795;28;20261;-50
2022/12/22 16:44:02;;;;;;;19.00;13.63;;;9.80;99.90;;;;;;5072460;28;20238;-50
2022/12/22 16:46:29;;;;;;;16.83;12.30;;;9.60;99.90;;;;;;5071015;28;20257;-50
2022/12/22 16:48:59;;;;;;;12.83;10.03;;;9.50;99.90;;;;;;5072333;28;20198;-50
2022/12/22 16:51:32;;;;;;;13.27;9.90;;;9.50;99.90;;;;;;5069506;28;20212;-50
2022/12/22 16:53:59;;;;;;;12.33;6.63;;;9.40;99.90;;;;;;5063862;28;20234;-50